sensor_id;sensor_type;location;lat;lon;timestamp;pressure;altitude;pressure_sealevel;temperature
19282;BMP180;9774;52.034;5.342;2023-03-24T00:00:19;99586.00;;;17.80
19282;BMP180;9774;52.034;5.342;2023-03-24T00:02:49;99581.00;;;17.80
19282;BMP180;9774;52.034;5.342;2023-03-24T00:05:19;99581.00;;;17.80
19282;BMP180;9774;52.034;5.342;2023-03-24T00:07:47;99575.00;;;17.80
19282;BMP180;9774;52.034;5.342;2023-03-24T00:10:15;99574.00;;;17.80
19282;BMP180;9774;52.034;5.342;2023-03-24T00:12:44;99568.00;;;17.80
19282;BMP180;9774;52.034;5.342;2023-03-24T00:15:14;99567.00;;;17.80
19282;BMP180;9774;52.034;5.342;2023-03-24T00:17:44;99557.00;;;17.80
19282;BMP180;9774;52.034;5.342;2023-03-24T00:20:14;99557.00;;;17.80
19282;BMP180;9774;52.034;5.342;2023-03-24T00:22:44;99546.00;;;17.80
19282;BMP180;9774;52.034;5.342;2023-03-24T00:25:16;99545.00;;;17.80
19282;BMP180;9774;52.034;5.342;2023-03-24T00:27:44;99536.00;;;17.80
19282;BMP180;9774;52.034;5.342;2023-03-24T00:30:15;99530.00;;;17.80
19282;BMP180;9774;52.034;5.342;2023-03-24T00:32:43;99524.00;;;17.80
19282;BMP180;9774;52.034;5.342;2023-03-24T00:35:14;99527.00;;;17.80
19282;BMP180;9774;52.034;5.342;2023-03-24T00:37:43;99528.00;;;17.80
19282;BMP180;9774;52.034;5.342;2023-03-24T00:40:13;99523.00;;;17.80
19282;BMP180;9774;52.034;5.342;2023-03-24T00:42:42;99517.00;;;17.80
19282;BMP180;9774;52.034;5.342;2023-03-24T00:45:12;99520.00;;;17.80
19282;BMP180;9774;52.034;5.342;2023-03-24T00:47:40;99512.00;;;17.80
19282;BMP180;9774;52.034;5.342;2023-03-24T00:50:15;99513.00;;;17.80
19282;BMP180;9774;52.034;5.342;2023-03-24T00:52:43;99508.00;;;17.80
19282;BMP180;9774;52.034;5.342;2023-03-24T00:55:13;99503.00;;;17.80
19282;BMP180;9774;52.034;5.342;2023-03-24T00:57:42;99493.00;;;17.80
19282;BMP180;9774;52.034;5.342;2023-03-24T01:00:16;99493.00;;;17.80
19282;BMP180;9774;52.034;5.342;2023-03-24T01:02:46;99490.00;;;17.80
19282;BMP180;9774;52.034;5.342;2023-03-24T01:05:14;99488.00;;;17.80
19282;BMP180;9774;52.034;5.342;2023-03-24T01:07:43;99479.00;;;17.80
19282;BMP180;9774;52.034;5.342;2023-03-24T01:10:12;99481.00;;;17.80
19282;BMP180;9774;52.034;5.342;2023-03-24T01:12:40;99478.00;;;17.80
19282;BMP180;9774;52.034;5.342;2023-03-24T01:15:11;99478.00;;;17.80
19282;BMP180;9774;52.034;5.342;2023-03-24T01:17:40;99467.00;;;17.90
19282;BMP180;9774;52.034;5.342;2023-03-24T01:20:08;99468.00;;;17.90
19282;BMP180;9774;52.034;5.342;2023-03-24T01:22:40;99473.00;;;17.80
19282;BMP180;9774;52.034;5.342;2023-03-24T01:25:11;99469.00;;;17.80
19282;BMP180;9774;52.034;5.342;2023-03-24T01:27:41;99461.00;;;17.90
19282;BMP180;9774;52.034;5.342;2023-03-24T01:30:11;99469.00;;;17.90
19282;BMP180;9774;52.034;5.342;2023-03-24T01:32:39;99460.00;;;17.90
19282;BMP180;9774;52.034;5.342;2023-03-24T01:35:07;99456.00;;;17.90
19282;BMP180;9774;52.034;5.342;2023-03-24T01:37:34;99446.00;;;17.90
19282;BMP180;9774;52.034;5.342;2023-03-24T01:40:04;99442.00;;;17.90
19282;BMP180;9774;52.034;5.342;2023-03-24T01:42:35;99445.00;;;17.90
19282;BMP180;9774;52.034;5.342;2023-03-24T01:45:42;99443.00;;;17.80
19282;BMP180;9774;52.034;5.342;2023-03-24T01:48:12;99438.00;;;17.90
19282;BMP180;9774;52.034;5.342;2023-03-24T01:50:43;99439.00;;;17.90
19282;BMP180;9774;52.034;5.342;2023-03-24T01:53:12;99433.00;;;18.00
19282;BMP180;9774;52.034;5.342;2023-03-24T01:55:42;99426.00;;;18.00
19282;BMP180;9774;52.034;5.342;2023-03-24T01:58:11;99430.00;;;18.00
19282;BMP180;9774;52.034;5.342;2023-03-24T02:00:39;99424.00;;;18.00
19282;BMP180;9774;52.034;5.342;2023-03-24T02:03:09;99422.00;;;18.00
19282;BMP180;9774;52.034;5.342;2023-03-24T02:05:38;99428.00;;;18.00
19282;BMP180;9774;52.034;5.342;2023-03-24T02:08:11;99421.00;;;18.00
19282;BMP180;9774;52.034;5.342;2023-03-24T02:10:42;99416.00;;;18.00
19282;BMP180;9774;52.034;5.342;2023-03-24T02:13:10;99410.00;;;18.00
19282;BMP180;9774;52.034;5.342;2023-03-24T02:15:44;99417.00;;;18.00
19282;BMP180;9774;52.034;5.342;2023-03-24T02:18:17;99409.00;;;18.00
19282;BMP180;9774;52.034;5.342;2023-03-24T02:21:16;99414.00;;;17.90
19282;BMP180;9774;52.034;5.342;2023-03-24T02:23:57;99419.00;;;18.00
19282;BMP180;9774;52.034;5.342;2023-03-24T02:29:57;99409.00;;;17.90
19282;BMP180;9774;52.034;5.342;2023-03-24T02:35:54;99485.00;;;17.90
19282;BMP180;9774;52.034;5.342;2023-03-24T02:41:44;99495.00;;;17.90
19282;BMP180;9774;52.034;5.342;2023-03-24T02:44:19;99506.00;;;17.90
19282;BMP180;9774;52.034;5.342;2023-03-24T02:46:53;99507.00;;;17.90
19282;BMP180;9774;52.034;5.342;2023-03-24T02:49:29;99507.00;;;17.80
19282;BMP180;9774;52.034;5.342;2023-03-24T02:52:02;99501.00;;;17.80
19282;BMP180;9774;52.034;5.342;2023-03-24T02:54:37;99504.00;;;17.80
19282;BMP180;9774;52.034;5.342;2023-03-24T02:57:10;99519.00;;;17.80
19282;BMP180;9774;52.034;5.342;2023-03-24T02:59:43;99521.00;;;17.70
19282;BMP180;9774;52.034;5.342;2023-03-24T03:02:15;99531.00;;;17.70
19282;BMP180;9774;52.034;5.342;2023-03-24T03:04:48;99536.00;;;17.70
19282;BMP180;9774;52.034;5.342;2023-03-24T03:07:20;99543.00;;;17.70
19282;BMP180;9774;52.034;5.342;2023-03-24T03:09:52;99548.00;;;17.60
19282;BMP180;9774;52.034;5.342;2023-03-24T03:12:24;99547.00;;;17.60
19282;BMP180;9774;52.034;5.342;2023-03-24T03:14:56;99553.00;;;17.60
19282;BMP180;9774;52.034;5.342;2023-03-24T03:17:26;99554.00;;;17.50
19282;BMP180;9774;52.034;5.342;2023-03-24T03:19:58;99566.00;;;17.50
19282;BMP180;9774;52.034;5.342;2023-03-24T03:22:32;99588.00;;;17.40
19282;BMP180;9774;52.034;5.342;2023-03-24T03:25:02;99589.00;;;17.40
19282;BMP180;9774;52.034;5.342;2023-03-24T03:27:33;99578.00;;;17.40
19282;BMP180;9774;52.034;5.342;2023-03-24T03:30:07;99587.00;;;17.40
19282;BMP180;9774;52.034;5.342;2023-03-24T03:32:40;99583.00;;;17.30
19282;BMP180;9774;52.034;5.342;2023-03-24T03:35:15;99588.00;;;17.30
19282;BMP180;9774;52.034;5.342;2023-03-24T03:37:49;99591.00;;;17.20
19282;BMP180;9774;52.034;5.342;2023-03-24T03:40:21;99603.00;;;17.20
19282;BMP180;9774;52.034;5.342;2023-03-24T03:42:50;99607.00;;;17.10
19282;BMP180;9774;52.034;5.342;2023-03-24T03:45:18;99624.00;;;17.10
19282;BMP180;9774;52.034;5.342;2023-03-24T03:47:45;99629.00;;;17.00
19282;BMP180;9774;52.034;5.342;2023-03-24T03:50:13;99629.00;;;17.00
19282;BMP180;9774;52.034;5.342;2023-03-24T03:52:40;99631.00;;;16.90
19282;BMP180;9774;52.034;5.342;2023-03-24T03:55:09;99630.00;;;16.80
19282;BMP180;9774;52.034;5.342;2023-03-24T03:57:37;99639.00;;;16.80
19282;BMP180;9774;52.034;5.342;2023-03-24T04:00:10;99648.00;;;16.70
19282;BMP180;9774;52.034;5.342;2023-03-24T04:02:55;99646.00;;;16.60
19282;BMP180;9774;52.034;5.342;2023-03-24T04:05:32;99656.00;;;16.60
19282;BMP180;9774;52.034;5.342;2023-03-24T04:08:12;99650.00;;;16.50
19282;BMP180;9774;52.034;5.342;2023-03-24T04:13:52;99657.00;;;16.40
19282;BMP180;9774;52.034;5.342;2023-03-24T04:16:35;99649.00;;;16.30
19282;BMP180;9774;52.034;5.342;2023-03-24T04:19:17;99661.00;;;16.30
19282;BMP180;9774;52.034;5.342;2023-03-24T04:22:01;99672.00;;;16.30
19282;BMP180;9774;52.034;5.342;2023-03-24T04:24:39;99673.00;;;16.30
19282;BMP180;9774;52.034;5.342;2023-03-24T04:27:14;99673.00;;;16.30
19282;BMP180;9774;52.034;5.342;2023-03-24T04:29:54;99678.00;;;16.20
19282;BMP180;9774;52.034;5.342;2023-03-24T04:32:28;99693.00;;;16.20
19282;BMP180;9774;52.034;5.342;2023-03-24T04:34:59;99692.00;;;16.20
19282;BMP180;9774;52.034;5.342;2023-03-24T04:37:31;99691.00;;;16.20
19282;BMP180;9774;52.034;5.342;2023-03-24T04:40:05;99688.00;;;16.20
19282;BMP180;9774;52.034;5.342;2023-03-24T04:42:37;99692.00;;;16.20
19282;BMP180;9774;52.034;5.342;2023-03-24T04:45:07;99701.00;;;16.20
19282;BMP180;9774;52.034;5.342;2023-03-24T04:47:40;99701.00;;;16.10
19282;BMP180;9774;52.034;5.342;2023-03-24T04:50:10;99701.00;;;16.20
19282;BMP180;9774;52.034;5.342;2023-03-24T04:52:38;99713.00;;;16.20
19282;BMP180;9774;52.034;5.342;2023-03-24T04:55:26;99710.00;;;16.00
19282;BMP180;9774;52.034;5.342;2023-03-24T04:57:57;99721.00;;;16.10
19282;BMP180;9774;52.034;5.342;2023-03-24T05:00:24;99716.00;;;16.10
19282;BMP180;9774;52.034;5.342;2023-03-24T05:02:53;99720.00;;;16.00
19282;BMP180;9774;52.034;5.342;2023-03-24T05:05:21;99722.00;;;16.00
19282;BMP180;9774;52.034;5.342;2023-03-24T05:07:48;99736.00;;;16.00
19282;BMP180;9774;52.034;5.342;2023-03-24T05:10:16;99741.00;;;16.00
19282;BMP180;9774;52.034;5.342;2023-03-24T05:12:44;99744.00;;;15.90
19282;BMP180;9774;52.034;5.342;2023-03-24T05:15:11;99741.00;;;15.90
19282;BMP180;9774;52.034;5.342;2023-03-24T05:17:39;99739.00;;;15.90
19282;BMP180;9774;52.034;5.342;2023-03-24T05:20:09;99756.00;;;15.80
19282;BMP180;9774;52.034;5.342;2023-03-24T05:22:37;99757.00;;;15.80
19282;BMP180;9774;52.034;5.342;2023-03-24T05:25:05;99755.00;;;15.80
19282;BMP180;9774;52.034;5.342;2023-03-24T05:27:33;99756.00;;;15.80
19282;BMP180;9774;52.034;5.342;2023-03-24T05:30:00;99761.00;;;15.80
19282;BMP180;9774;52.034;5.342;2023-03-24T05:32:27;99770.00;;;15.80
19282;BMP180;9774;52.034;5.342;2023-03-24T05:34:55;99774.00;;;15.80
19282;BMP180;9774;52.034;5.342;2023-03-24T05:37:23;99766.00;;;15.80
19282;BMP180;9774;52.034;5.342;2023-03-24T05:39:50;99773.00;;;15.80
19282;BMP180;9774;52.034;5.342;2023-03-24T05:42:18;99775.00;;;15.80
19282;BMP180;9774;52.034;5.342;2023-03-24T05:44:45;99784.00;;;15.80
19282;BMP180;9774;52.034;5.342;2023-03-24T05:47:13;99780.00;;;15.80
19282;BMP180;9774;52.034;5.342;2023-03-24T05:49:41;99780.00;;;15.80
19282;BMP180;9774;52.034;5.342;2023-03-24T05:52:08;99787.00;;;15.80
19282;BMP180;9774;52.034;5.342;2023-03-24T05:54:37;99788.00;;;15.80
19282;BMP180;9774;52.034;5.342;2023-03-24T05:57:05;99791.00;;;15.90
19282;BMP180;9774;52.034;5.342;2023-03-24T05:59:33;99793.00;;;15.90
19282;BMP180;9774;52.034;5.342;2023-03-24T06:02:00;99791.00;;;15.90
19282;BMP180;9774;52.034;5.342;2023-03-24T06:04:28;99798.00;;;15.90
19282;BMP180;9774;52.034;5.342;2023-03-24T06:06:55;99803.00;;;15.90
19282;BMP180;9774;52.034;5.342;2023-03-24T06:09:24;99806.00;;;16.00
19282;BMP180;9774;52.034;5.342;2023-03-24T06:11:55;99819.00;;;15.90
19282;BMP180;9774;52.034;5.342;2023-03-24T06:14:22;99811.00;;;16.00
19282;BMP180;9774;52.034;5.342;2023-03-24T06:16:49;99806.00;;;16.00
19282;BMP180;9774;52.034;5.342;2023-03-24T06:19:17;99809.00;;;16.00
19282;BMP180;9774;52.034;5.342;2023-03-24T06:21:47;99830.00;;;16.00
19282;BMP180;9774;52.034;5.342;2023-03-24T06:24:15;99820.00;;;16.00
19282;BMP180;9774;52.034;5.342;2023-03-24T06:26:43;99811.00;;;16.00
19282;BMP180;9774;52.034;5.342;2023-03-24T06:29:11;99822.00;;;16.00
19282;BMP180;9774;52.034;5.342;2023-03-24T06:31:39;99823.00;;;16.10
19282;BMP180;9774;52.034;5.342;2023-03-24T06:34:06;99826.00;;;16.10
19282;BMP180;9774;52.034;5.342;2023-03-24T06:36:33;99827.00;;;16.10
19282;BMP180;9774;52.034;5.342;2023-03-24T06:39:00;99830.00;;;16.10
19282;BMP180;9774;52.034;5.342;2023-03-24T06:41:28;99826.00;;;16.10
19282;BMP180;9774;52.034;5.342;2023-03-24T06:43:56;99838.00;;;16.10
19282;BMP180;9774;52.034;5.342;2023-03-24T06:46:24;99836.00;;;16.10
19282;BMP180;9774;52.034;5.342;2023-03-24T06:48:52;99836.00;;;16.20
19282;BMP180;9774;52.034;5.342;2023-03-24T06:51:19;99848.00;;;16.20
19282;BMP180;9774;52.034;5.342;2023-03-24T06:53:47;99853.00;;;16.20
19282;BMP180;9774;52.034;5.342;2023-03-24T06:56:14;99849.00;;;16.30
19282;BMP180;9774;52.034;5.342;2023-03-24T06:58:43;99846.00;;;16.30
19282;BMP180;9774;52.034;5.342;2023-03-24T07:01:10;99856.00;;;16.30
19282;BMP180;9774;52.034;5.342;2023-03-24T07:03:41;99855.00;;;16.30
19282;BMP180;9774;52.034;5.342;2023-03-24T07:06:09;99859.00;;;16.30
19282;BMP180;9774;52.034;5.342;2023-03-24T07:08:36;99870.00;;;16.30
19282;BMP180;9774;52.034;5.342;2023-03-24T07:11:04;99874.00;;;16.40
19282;BMP180;9774;52.034;5.342;2023-03-24T07:13:32;99874.00;;;16.40
19282;BMP180;9774;52.034;5.342;2023-03-24T07:16:00;99870.00;;;16.40
19282;BMP180;9774;52.034;5.342;2023-03-24T07:18:27;99876.00;;;16.50
19282;BMP180;9774;52.034;5.342;2023-03-24T07:20:56;99884.00;;;16.50
19282;BMP180;9774;52.034;5.342;2023-03-24T07:23:26;99878.00;;;16.50
19282;BMP180;9774;52.034;5.342;2023-03-24T07:25:53;99880.00;;;16.60
19282;BMP180;9774;52.034;5.342;2023-03-24T07:28:20;99887.00;;;16.60
19282;BMP180;9774;52.034;5.342;2023-03-24T07:30:49;99883.00;;;16.60
19282;BMP180;9774;52.034;5.342;2023-03-24T07:33:16;99895.00;;;16.70
19282;BMP180;9774;52.034;5.342;2023-03-24T07:35:44;99901.00;;;16.70
19282;BMP180;9774;52.034;5.342;2023-03-24T07:38:13;99890.00;;;16.70
19282;BMP180;9774;52.034;5.342;2023-03-24T07:40:40;99899.00;;;16.80
19282;BMP180;9774;52.034;5.342;2023-03-24T07:43:07;99916.00;;;16.80
19282;BMP180;9774;52.034;5.342;2023-03-24T07:45:36;99902.00;;;16.80
19282;BMP180;9774;52.034;5.342;2023-03-24T07:48:03;99908.00;;;16.90
19282;BMP180;9774;52.034;5.342;2023-03-24T07:50:31;99902.00;;;16.90
19282;BMP180;9774;52.034;5.342;2023-03-24T07:52:58;99905.00;;;17.00
19282;BMP180;9774;52.034;5.342;2023-03-24T07:55:27;99919.00;;;17.00
19282;BMP180;9774;52.034;5.342;2023-03-24T07:57:55;99916.00;;;17.10
19282;BMP180;9774;52.034;5.342;2023-03-24T08:00:22;99917.00;;;17.10
19282;BMP180;9774;52.034;5.342;2023-03-24T08:02:51;99917.00;;;17.20
19282;BMP180;9774;52.034;5.342;2023-03-24T08:05:19;99921.00;;;17.30
19282;BMP180;9774;52.034;5.342;2023-03-24T08:07:48;99912.00;;;17.30
19282;BMP180;9774;52.034;5.342;2023-03-24T08:10:19;99939.00;;;17.40
19282;BMP180;9774;52.034;5.342;2023-03-24T08:12:50;99922.00;;;17.40
19282;BMP180;9774;52.034;5.342;2023-03-24T08:15:17;99925.00;;;17.50
19282;BMP180;9774;52.034;5.342;2023-03-24T08:17:45;99936.00;;;17.50
19282;BMP180;9774;52.034;5.342;2023-03-24T08:20:13;99925.00;;;17.60
19282;BMP180;9774;52.034;5.342;2023-03-24T08:22:41;99915.00;;;17.60
19282;BMP180;9774;52.034;5.342;2023-03-24T08:25:10;99927.00;;;17.60
19282;BMP180;9774;52.034;5.342;2023-03-24T08:27:38;99937.00;;;17.60
19282;BMP180;9774;52.034;5.342;2023-03-24T08:30:13;99928.00;;;17.60
19282;BMP180;9774;52.034;5.342;2023-03-24T08:32:43;99935.00;;;17.60
19282;BMP180;9774;52.034;5.342;2023-03-24T08:35:11;99935.00;;;17.60
19282;BMP180;9774;52.034;5.342;2023-03-24T08:37:40;99936.00;;;17.60
19282;BMP180;9774;52.034;5.342;2023-03-24T08:40:09;99950.00;;;17.60
19282;BMP180;9774;52.034;5.342;2023-03-24T08:42:39;99940.00;;;17.60
19282;BMP180;9774;52.034;5.342;2023-03-24T08:45:09;99947.00;;;17.70
19282;BMP180;9774;52.034;5.342;2023-03-24T08:47:37;99946.00;;;17.70
19282;BMP180;9774;52.034;5.342;2023-03-24T08:50:06;99952.00;;;17.80
19282;BMP180;9774;52.034;5.342;2023-03-24T08:52:33;99944.00;;;17.80
19282;BMP180;9774;52.034;5.342;2023-03-24T08:55:02;99957.00;;;17.90
19282;BMP180;9774;52.034;5.342;2023-03-24T08:57:30;99957.00;;;18.00
19282;BMP180;9774;52.034;5.342;2023-03-24T08:59:57;99951.00;;;18.10
19282;BMP180;9774;52.034;5.342;2023-03-24T09:02:26;99968.00;;;18.20
19282;BMP180;9774;52.034;5.342;2023-03-24T09:04:53;99967.00;;;18.30
19282;BMP180;9774;52.034;5.342;2023-03-24T09:07:21;99983.00;;;18.40
19282;BMP180;9774;52.034;5.342;2023-03-24T09:09:48;99985.00;;;18.40
19282;BMP180;9774;52.034;5.342;2023-03-24T09:12:16;99980.00;;;18.50
19282;BMP180;9774;52.034;5.342;2023-03-24T09:14:47;99983.00;;;18.50
19282;BMP180;9774;52.034;5.342;2023-03-24T09:17:15;99988.00;;;18.50
19282;BMP180;9774;52.034;5.342;2023-03-24T09:19:44;99997.00;;;18.50
19282;BMP180;9774;52.034;5.342;2023-03-24T09:22:12;100001.00;;;18.50
19282;BMP180;9774;52.034;5.342;2023-03-24T09:24:39;100000.00;;;18.50
19282;BMP180;9774;52.034;5.342;2023-03-24T09:27:06;100001.00;;;18.40
19282;BMP180;9774;52.034;5.342;2023-03-24T09:29:34;100009.00;;;18.40
19282;BMP180;9774;52.034;5.342;2023-03-24T09:32:01;100014.00;;;18.40
19282;BMP180;9774;52.034;5.342;2023-03-24T09:34:28;100013.00;;;18.30
19282;BMP180;9774;52.034;5.342;2023-03-24T09:36:59;100001.00;;;18.30
19282;BMP180;9774;52.034;5.342;2023-03-24T09:39:26;99993.00;;;18.30
19282;BMP180;9774;52.034;5.342;2023-03-24T09:41:54;99991.00;;;18.20
19282;BMP180;9774;52.034;5.342;2023-03-24T09:44:26;100003.00;;;18.20
19282;BMP180;9774;52.034;5.342;2023-03-24T09:46:57;100001.00;;;18.20
19282;BMP180;9774;52.034;5.342;2023-03-24T09:49:29;100005.00;;;18.30
19282;BMP180;9774;52.034;5.342;2023-03-24T09:52:04;99998.00;;;18.30
19282;BMP180;9774;52.034;5.342;2023-03-24T09:54:39;99999.00;;;18.40
19282;BMP180;9774;52.034;5.342;2023-03-24T09:57:13;100007.00;;;18.50
19282;BMP180;9774;52.034;5.342;2023-03-24T09:59:42;100014.00;;;18.60
19282;BMP180;9774;52.034;5.342;2023-03-24T10:02:11;100009.00;;;18.70
19282;BMP180;9774;52.034;5.342;2023-03-24T10:04:39;100020.00;;;18.80
19282;BMP180;9774;52.034;5.342;2023-03-24T10:07:16;100027.00;;;18.80
19282;BMP180;9774;52.034;5.342;2023-03-24T10:09:46;100020.00;;;18.90
19282;BMP180;9774;52.034;5.342;2023-03-24T10:12:25;100017.00;;;19.00
19282;BMP180;9774;52.034;5.342;2023-03-24T10:15:05;100021.00;;;19.10
19282;BMP180;9774;52.034;5.342;2023-03-24T10:17:40;100026.00;;;19.20
19282;BMP180;9774;52.034;5.342;2023-03-24T10:20:23;100010.00;;;19.30
19282;BMP180;9774;52.034;5.342;2023-03-24T10:22:58;100021.00;;;19.50
19282;BMP180;9774;52.034;5.342;2023-03-24T10:25:38;100001.00;;;19.60
19282;BMP180;9774;52.034;5.342;2023-03-24T10:28:15;100008.00;;;19.70
19282;BMP180;9774;52.034;5.342;2023-03-24T10:30:46;100008.00;;;19.90
19282;BMP180;9774;52.034;5.342;2023-03-24T10:33:14;100010.00;;;20.00
19282;BMP180;9774;52.034;5.342;2023-03-24T10:35:45;100016.00;;;20.20
19282;BMP180;9774;52.034;5.342;2023-03-24T10:38:17;100014.00;;;20.20
19282;BMP180;9774;52.034;5.342;2023-03-24T10:40:46;100010.00;;;20.30
19282;BMP180;9774;52.034;5.342;2023-03-24T10:43:14;100008.00;;;20.40
19282;BMP180;9774;52.034;5.342;2023-03-24T10:45:43;100003.00;;;20.40
19282;BMP180;9774;52.034;5.342;2023-03-24T10:48:15;100002.00;;;20.50
19282;BMP180;9774;52.034;5.342;2023-03-24T10:50:59;100014.00;;;20.50
19282;BMP180;9774;52.034;5.342;2023-03-24T10:53:27;100013.00;;;20.50
19282;BMP180;9774;52.034;5.342;2023-03-24T10:55:55;100027.00;;;20.40
19282;BMP180;9774;52.034;5.342;2023-03-24T10:58:29;100033.00;;;20.30
19282;BMP180;9774;52.034;5.342;2023-03-24T11:00:57;100042.00;;;20.30
19282;BMP180;9774;52.034;5.342;2023-03-24T11:03:29;100044.00;;;20.10
19282;BMP180;9774;52.034;5.342;2023-03-24T11:06:00;100047.00;;;20.00
19282;BMP180;9774;52.034;5.342;2023-03-24T11:08:35;100050.00;;;19.90
19282;BMP180;9774;52.034;5.342;2023-03-24T11:11:13;100049.00;;;19.70
19282;BMP180;9774;52.034;5.342;2023-03-24T11:13:41;100043.00;;;19.80
19282;BMP180;9774;52.034;5.342;2023-03-24T11:16:27;100042.00;;;19.60
19282;BMP180;9774;52.034;5.342;2023-03-24T11:18:56;100032.00;;;19.60
19282;BMP180;9774;52.034;5.342;2023-03-24T11:21:24;100040.00;;;19.50
19282;BMP180;9774;52.034;5.342;2023-03-24T11:23:56;100043.00;;;19.40
19282;BMP180;9774;52.034;5.342;2023-03-24T11:26:30;100049.00;;;19.40
19282;BMP180;9774;52.034;5.342;2023-03-24T11:29:01;100047.00;;;19.50
19282;BMP180;9774;52.034;5.342;2023-03-24T11:31:30;100042.00;;;19.50
19282;BMP180;9774;52.034;5.342;2023-03-24T11:33:59;100051.00;;;19.50
19282;BMP180;9774;52.034;5.342;2023-03-24T11:36:43;100038.00;;;19.40
19282;BMP180;9774;52.034;5.342;2023-03-24T11:39:20;100048.00;;;19.40
19282;BMP180;9774;52.034;5.342;2023-03-24T11:42:03;100048.00;;;19.30
19282;BMP180;9774;52.034;5.342;2023-03-24T11:44:40;100049.00;;;19.40
19282;BMP180;9774;52.034;5.342;2023-03-24T11:47:11;100056.00;;;19.40
19282;BMP180;9774;52.034;5.342;2023-03-24T11:49:43;100065.00;;;19.50
19282;BMP180;9774;52.034;5.342;2023-03-24T11:52:19;100054.00;;;19.50
19282;BMP180;9774;52.034;5.342;2023-03-24T11:54:49;100057.00;;;19.60
19282;BMP180;9774;52.034;5.342;2023-03-24T11:57:25;100052.00;;;19.60
19282;BMP180;9774;52.034;5.342;2023-03-24T11:59:57;100050.00;;;19.60
19282;BMP180;9774;52.034;5.342;2023-03-24T12:02:39;100052.00;;;19.60
19282;BMP180;9774;52.034;5.342;2023-03-24T12:05:20;100041.00;;;19.60
19282;BMP180;9774;52.034;5.342;2023-03-24T12:11:07;100047.00;;;19.60
19282;BMP180;9774;52.034;5.342;2023-03-24T12:13:39;100039.00;;;19.60
19282;BMP180;9774;52.034;5.342;2023-03-24T12:16:24;100038.00;;;19.50
19282;BMP180;9774;52.034;5.342;2023-03-24T12:19:24;100047.00;;;19.40
19282;BMP180;9774;52.034;5.342;2023-03-24T12:22:03;100035.00;;;19.50
19282;BMP180;9774;52.034;5.342;2023-03-24T12:24:45;100041.00;;;19.50
19282;BMP180;9774;52.034;5.342;2023-03-24T12:27:26;100040.00;;;19.50
19282;BMP180;9774;52.034;5.342;2023-03-24T12:29:59;100044.00;;;19.50
19282;BMP180;9774;52.034;5.342;2023-03-24T12:32:39;100031.00;;;19.60
19282;BMP180;9774;52.034;5.342;2023-03-24T12:35:27;100023.00;;;19.60
19282;BMP180;9774;52.034;5.342;2023-03-24T12:38:10;100030.00;;;19.70
19282;BMP180;9774;52.034;5.342;2023-03-24T12:40:57;100030.00;;;19.60
19282;BMP180;9774;52.034;5.342;2023-03-24T12:43:36;100025.00;;;19.70
19282;BMP180;9774;52.034;5.342;2023-03-24T12:46:15;100027.00;;;19.70
19282;BMP180;9774;52.034;5.342;2023-03-24T12:49:05;100031.00;;;19.70
19282;BMP180;9774;52.034;5.342;2023-03-24T12:51:40;100035.00;;;19.70
19282;BMP180;9774;52.034;5.342;2023-03-24T12:54:23;100027.00;;;19.70
19282;BMP180;9774;52.034;5.342;2023-03-24T12:56:55;100018.00;;;19.70
19282;BMP180;9774;52.034;5.342;2023-03-24T12:59:30;100010.00;;;19.70
19282;BMP180;9774;52.034;5.342;2023-03-24T13:02:07;100011.00;;;19.80
19282;BMP180;9774;52.034;5.342;2023-03-24T13:04:38;100004.00;;;19.90
19282;BMP180;9774;52.034;5.342;2023-03-24T13:07:08;100022.00;;;19.90
19282;BMP180;9774;52.034;5.342;2023-03-24T13:09:40;100023.00;;;19.90
19282;BMP180;9774;52.034;5.342;2023-03-24T13:12:14;100026.00;;;19.90
19282;BMP180;9774;52.034;5.342;2023-03-24T13:14:50;100012.00;;;19.80
19282;BMP180;9774;52.034;5.342;2023-03-24T13:17:22;100016.00;;;19.80
19282;BMP180;9774;52.034;5.342;2023-03-24T13:19:50;100019.00;;;19.80
19282;BMP180;9774;52.034;5.342;2023-03-24T13:22:20;100025.00;;;19.70
19282;BMP180;9774;52.034;5.342;2023-03-24T13:24:49;100025.00;;;19.70
19282;BMP180;9774;52.034;5.342;2023-03-24T13:27:21;100014.00;;;19.60
19282;BMP180;9774;52.034;5.342;2023-03-24T13:30:03;100024.00;;;19.50
19282;BMP180;9774;52.034;5.342;2023-03-24T13:32:34;100017.00;;;19.50
19282;BMP180;9774;52.034;5.342;2023-03-24T13:35:11;100005.00;;;19.40
19282;BMP180;9774;52.034;5.342;2023-03-24T13:37:44;100007.00;;;19.40
19282;BMP180;9774;52.034;5.342;2023-03-24T13:40:20;100022.00;;;19.40
19282;BMP180;9774;52.034;5.342;2023-03-24T13:42:51;100019.00;;;19.40
19282;BMP180;9774;52.034;5.342;2023-03-24T13:45:34;100023.00;;;19.40
19282;BMP180;9774;52.034;5.342;2023-03-24T13:48:20;100020.00;;;19.50
19282;BMP180;9774;52.034;5.342;2023-03-24T13:50:55;100023.00;;;19.50
19282;BMP180;9774;52.034;5.342;2023-03-24T13:53:34;100025.00;;;19.50
19282;BMP180;9774;52.034;5.342;2023-03-24T13:56:03;100034.00;;;19.50
19282;BMP180;9774;52.034;5.342;2023-03-24T13:58:47;100035.00;;;19.40
19282;BMP180;9774;52.034;5.342;2023-03-24T14:01:29;100037.00;;;19.40
19282;BMP180;9774;52.034;5.342;2023-03-24T14:04:25;100045.00;;;19.10
19282;BMP180;9774;52.034;5.342;2023-03-24T14:06:54;100051.00;;;19.20
19282;BMP180;9774;52.034;5.342;2023-03-24T14:09:22;100053.00;;;19.00
19282;BMP180;9774;52.034;5.342;2023-03-24T14:12:11;100056.00;;;18.80
19282;BMP180;9774;52.034;5.342;2023-03-24T14:15:13;100053.00;;;18.80
19282;BMP180;9774;52.034;5.342;2023-03-24T14:17:45;100040.00;;;19.20
19282;BMP180;9774;52.034;5.342;2023-03-24T14:20:25;100030.00;;;19.90
19282;BMP180;9774;52.034;5.342;2023-03-24T14:22:53;100030.00;;;20.90
19282;BMP180;9774;52.034;5.342;2023-03-24T14:25:24;100027.00;;;21.80
19282;BMP180;9774;52.034;5.342;2023-03-24T14:27:54;100014.00;;;22.60
19282;BMP180;9774;52.034;5.342;2023-03-24T14:30:32;100021.00;;;23.50
19282;BMP180;9774;52.034;5.342;2023-03-24T14:33:04;100024.00;;;24.10
19282;BMP180;9774;52.034;5.342;2023-03-24T14:35:35;100030.00;;;24.80
19282;BMP180;9774;52.034;5.342;2023-03-24T14:38:21;100022.00;;;25.50
19282;BMP180;9774;52.034;5.342;2023-03-24T14:40:51;100020.00;;;26.20
19282;BMP180;9774;52.034;5.342;2023-03-24T14:43:22;100017.00;;;27.00
19282;BMP180;9774;52.034;5.342;2023-03-24T14:45:58;100012.00;;;27.60
19282;BMP180;9774;52.034;5.342;2023-03-24T14:48:34;100007.00;;;28.20
19282;BMP180;9774;52.034;5.342;2023-03-24T14:54:03;100016.00;;;29.30
19282;BMP180;9774;52.034;5.342;2023-03-24T14:56:34;100019.00;;;29.60
19282;BMP180;9774;52.034;5.342;2023-03-24T14:59:07;100023.00;;;29.50
19282;BMP180;9774;52.034;5.342;2023-03-24T15:01:36;100037.00;;;29.10